ジャカルタ の空港の天気 - METARとTAF

スカルノハッタ国際空港 ( WIII / CGK ) - インドネシア バンテン州、Cengkareng ( ジャカルタ近郊)
飛行場実況気象(Metar)
観測時間08/26 02:00 WIB (08/25 19:00 UTC)
風向・風速南南西 3m/s
視程6000m
天気現象
少しの雲 雲底高度 640m
気温26℃
湿度65%
気圧1011hPa
METARWIII 251900Z 20005KT 6000 FEW021 26/19 Q1011 NOSIG
過去の天気等 Google飛行場航空写真 Wunderground天気予報

過去48時間のMETAR

飛行場予報(TAF)
発表時間: 8/26 00:00 WIB (8/25 17:00 UTC)
予報対象時間: 26日1時 WIB ~ 27日7時 WIB
風向・風速東北東 5m/s
視程5000m
天気現象煙霧
少しの雲 雲底高度 610m
26日6時 WIB ~ 26日8時 WIB に徐々に
視程8000m
天気現象運行に影響にある天気現象が終了
TAF WIII 251700Z 2518/2624 06010KT 5000 HZ FEW020
BECMG 2523/2601 8000 NSW